createdAt,value
2019-01-25T00:02:06.292Z,17.23
2019-01-25T00:04:36.665Z,13.70
2019-01-25T00:07:07.061Z,9.18
2019-01-25T00:09:38.699Z,8.75
2019-01-25T00:12:09.037Z,14.85
2019-01-25T00:14:39.363Z,9.80
2019-01-25T00:17:09.755Z,11.20
2019-01-25T00:19:40.141Z,9.98
2019-01-25T00:22:10.597Z,18.42
2019-01-25T00:24:40.921Z,10.88
2019-01-25T00:27:11.274Z,16.93
2019-01-25T00:29:41.611Z,8.83
2019-01-25T00:32:12.052Z,9.15
2019-01-25T00:34:42.461Z,8.20
2019-01-25T00:37:12.825Z,7.87
2019-01-25T00:39:43.489Z,9.63
2019-01-25T00:42:13.814Z,17.37
2019-01-25T00:44:44.161Z,11.63
2019-01-25T00:47:14.528Z,10.03
2019-01-25T00:49:44.909Z,13.20
2019-01-25T00:52:15.243Z,10.60
2019-01-25T00:54:45.603Z,9.60
2019-01-25T00:57:15.958Z,10.60
2019-01-25T00:59:46.269Z,14.68
2019-01-25T01:02:16.665Z,8.28
2019-01-25T01:04:47.089Z,10.70
2019-01-25T01:07:17.405Z,14.60
2019-01-25T01:09:48.779Z,8.80
2019-01-25T01:12:19.112Z,8.35
2019-01-25T01:14:49.461Z,7.97
2019-01-25T01:17:19.829Z,34.75
2019-01-25T01:19:50.169Z,7.78
2019-01-25T01:22:20.520Z,10.53
2019-01-25T01:24:50.841Z,8.93
2019-01-25T01:27:21.233Z,6.97
2019-01-25T01:29:51.576Z,9.88
2019-01-25T01:32:21.934Z,12.98
2019-01-25T01:34:53.345Z,7.17
2019-01-25T01:37:23.673Z,6.75
2019-01-25T01:39:54.203Z,9.70
2019-01-25T01:42:24.613Z,7.62
2019-01-25T01:44:54.985Z,8.23
2019-01-25T01:47:25.326Z,13.03
2019-01-25T01:49:55.703Z,37.95
2019-01-25T01:52:26.029Z,10.25
2019-01-25T01:54:56.425Z,19.17
2019-01-25T01:57:26.764Z,18.12
2019-01-25T01:59:57.121Z,6.58
2019-01-25T02:02:27.525Z,9.90
2019-01-25T02:04:57.841Z,9.08
2019-01-25T02:07:28.215Z,12.90
2019-01-25T02:09:59.277Z,7.60
2019-01-25T02:12:29.637Z,7.67
2019-01-25T02:14:59.981Z,9.13
2019-01-25T02:17:30.361Z,14.23
2019-01-25T02:20:00.690Z,8.43
2019-01-25T02:22:31.013Z,5.15
2019-01-25T02:25:01.361Z,10.60
2019-01-25T02:27:31.759Z,6.72
2019-01-25T02:30:02.153Z,7.90
2019-01-25T02:32:32.553Z,10.38
2019-01-25T02:35:02.913Z,5.30
2019-01-25T02:37:33.297Z,7.15
2019-01-25T02:40:06.305Z,8.28
2019-01-25T02:42:36.678Z,7.95
2019-01-25T02:45:08.560Z,10.68
2019-01-25T02:47:38.910Z,7.03
2019-01-25T02:50:11.997Z,6.85
2019-01-25T02:52:42.399Z,12.18
2019-01-25T02:55:13.081Z,7.15
2019-01-25T02:57:43.428Z,10.65
2019-01-25T03:00:19.057Z,4.72
2019-01-25T03:02:49.988Z,7.62
2019-01-25T03:05:20.933Z,5.17
2019-01-25T03:07:51.946Z,6.90
2019-01-25T03:10:28.646Z,11.70
2019-01-25T03:12:54.762Z,8.25
2019-01-25T03:15:28.113Z,9.95
2019-01-25T03:17:58.425Z,11.28
2019-01-25T03:20:28.781Z,8.93
2019-01-25T03:22:59.145Z,9.75
2019-01-25T03:25:29.709Z,12.93
2019-01-25T03:28:00.094Z,6.03
2019-01-25T03:30:30.499Z,6.83
2019-01-25T03:33:00.858Z,5.60
2019-01-25T03:35:31.209Z,9.48
2019-01-25T03:38:01.598Z,9.03
2019-01-25T03:40:31.913Z,5.42
2019-01-25T03:43:02.243Z,9.98
2019-01-25T03:45:32.641Z,7.75
2019-01-25T03:48:02.943Z,5.70
2019-01-25T03:50:34.342Z,13.35
2019-01-25T03:53:04.681Z,7.28
2019-01-25T03:55:35.017Z,10.95
2019-01-25T03:58:05.361Z,5.60
2019-01-25T04:00:35.730Z,7.45
2019-01-25T04:03:06.445Z,7.83
2019-01-25T04:05:37.773Z,4.87
2019-01-25T04:08:08.097Z,8.80
2019-01-25T04:10:39.384Z,6.60
2019-01-25T04:13:09.721Z,6.30
2019-01-25T04:15:40.053Z,11.50
2019-01-25T04:18:10.384Z,6.97
2019-01-25T04:20:40.765Z,6.80
2019-01-25T04:23:11.066Z,8.85
2019-01-25T04:25:41.544Z,6.83
2019-01-25T04:28:11.857Z,5.80
2019-01-25T04:30:42.193Z,8.50
2019-01-25T04:33:12.569Z,5.37
2019-01-25T04:35:42.941Z,6.15
2019-01-25T04:38:13.312Z,5.55
2019-01-25T04:40:44.149Z,9.65
2019-01-25T04:43:14.457Z,4.78
2019-01-25T04:45:44.792Z,4.30
2019-01-25T04:48:16.029Z,4.70
2019-01-25T04:50:46.362Z,3.83
2019-01-25T04:53:16.689Z,6.20
2019-01-25T04:55:47.039Z,4.55
2019-01-25T04:58:18.668Z,4.62
2019-01-25T05:00:49.137Z,12.63
2019-01-25T05:03:19.439Z,5.97
2019-01-25T05:05:49.763Z,4.28
2019-01-25T05:08:21.213Z,7.75
2019-01-25T05:10:54.102Z,8.80
2019-01-25T05:13:24.445Z,6.85
2019-01-25T05:15:54.773Z,13.55
2019-01-25T05:18:25.109Z,5.90
2019-01-25T05:20:55.444Z,3.92
2019-01-25T05:23:25.789Z,7.78
2019-01-25T05:25:56.118Z,5.25
2019-01-25T05:28:26.506Z,5.58
2019-01-25T05:30:59.599Z,4.80
2019-01-25T05:33:29.940Z,9.20
2019-01-25T05:36:00.245Z,4.65
2019-01-25T05:38:30.605Z,4.37
2019-01-25T05:41:02.477Z,11.33
2019-01-25T05:43:40.749Z,5.95
2019-01-25T05:46:11.483Z,5.12
2019-01-25T05:48:41.813Z,6.80
2019-01-25T05:51:12.121Z,6.03
2019-01-25T05:53:50.193Z,4.90
2019-01-25T05:56:22.553Z,5.65
2019-01-25T05:58:52.901Z,5.25
2019-01-25T06:01:23.214Z,5.67
2019-01-25T06:03:53.578Z,7.35
2019-01-25T06:06:23.885Z,5.30
2019-01-25T06:08:54.251Z,5.67
2019-01-25T06:11:24.863Z,7.47
2019-01-25T06:13:55.206Z,5.30
2019-01-25T06:16:25.527Z,11.43
2019-01-25T06:18:55.865Z,6.47
2019-01-25T06:21:26.157Z,5.72
2019-01-25T06:23:56.489Z,5.87
2019-01-25T06:26:26.857Z,4.60
2019-01-25T06:28:57.212Z,4.92
2019-01-25T06:31:27.581Z,4.42
2019-01-25T06:33:57.955Z,5.83
2019-01-25T06:36:28.311Z,4.92
2019-01-25T06:38:58.609Z,6.22
2019-01-25T06:41:30.022Z,5.50
2019-01-25T06:44:00.377Z,6.87
2019-01-25T06:46:30.763Z,8.90
2019-01-25T06:49:01.081Z,5.08
2019-01-25T06:51:31.401Z,4.85
2019-01-25T06:54:01.704Z,5.72
2019-01-25T06:56:32.050Z,10.88
2019-01-25T06:59:14.473Z,5.87
2019-01-25T07:02:02.631Z,11.68
2019-01-25T07:04:32.931Z,8.18
2019-01-25T07:07:05.145Z,5.60
2019-01-25T07:09:35.493Z,18.25
2019-01-25T07:12:05.823Z,5.95
2019-01-25T07:14:36.177Z,6.67
2019-01-25T07:17:06.521Z,7.55
2019-01-25T07:19:37.913Z,4.80
2019-01-25T07:22:08.311Z,7.35
2019-01-25T07:24:38.666Z,9.00
2019-01-25T07:27:08.966Z,6.00
2019-01-25T07:29:39.315Z,6.28
2019-01-25T07:32:09.809Z,9.00
2019-01-25T07:34:40.113Z,5.17
2019-01-25T07:37:10.450Z,5.85
2019-01-25T07:39:40.785Z,7.85
2019-01-25T07:42:11.081Z,8.35
2019-01-25T07:44:41.582Z,10.10
2019-01-25T07:47:11.893Z,5.95
2019-01-25T07:49:42.245Z,15.38
2019-01-25T07:52:12.559Z,6.83
2019-01-25T07:54:42.981Z,6.97
2019-01-25T07:57:13.353Z,6.17
2019-01-25T07:59:43.657Z,7.05
2019-01-25T08:02:14.038Z,8.98
2019-01-25T08:04:44.366Z,10.13
2019-01-25T08:07:14.730Z,11.33
2019-01-25T08:09:45.028Z,8.53
2019-01-25T08:12:15.428Z,8.03
2019-01-25T08:14:45.916Z,6.90
2019-01-25T08:17:16.258Z,6.60
2019-01-25T08:19:46.740Z,9.35
2019-01-25T08:22:17.185Z,6.60
2019-01-25T08:24:47.509Z,7.17
2019-01-25T08:27:17.913Z,7.35
2019-01-25T08:29:48.220Z,6.08
2019-01-25T08:32:18.581Z,6.92
2019-01-25T08:34:48.989Z,6.47
2019-01-25T08:37:19.352Z,6.78
2019-01-25T08:39:49.685Z,10.70
2019-01-25T08:42:21.478Z,8.45
2019-01-25T08:44:51.874Z,5.15
2019-01-25T08:47:23.117Z,6.40
2019-01-25T08:49:57.778Z,12.10
2019-01-25T08:52:25.526Z,6.62
2019-01-25T08:54:55.975Z,7.55
2019-01-25T08:57:26.290Z,5.72
2019-01-25T08:59:56.676Z,7.05
2019-01-25T09:02:27.070Z,8.98
2019-01-25T09:04:57.511Z,7.15
2019-01-25T09:07:27.879Z,5.40
2019-01-25T09:09:58.291Z,10.28
2019-01-25T09:12:29.768Z,5.85
2019-01-25T09:15:01.269Z,6.45
2019-01-25T09:17:33.301Z,7.62
2019-01-25T09:20:04.121Z,9.28
2019-01-25T09:22:34.633Z,9.05
2019-01-25T09:25:05.909Z,6.30
2019-01-25T09:27:36.357Z,5.70
2019-01-25T09:30:09.513Z,6.72
2019-01-25T09:32:40.135Z,12.10
2019-01-25T09:35:10.793Z,7.53
2019-01-25T09:37:41.333Z,15.53
2019-01-25T09:40:14.679Z,7.97
2019-01-25T09:42:46.333Z,5.10
2019-01-25T09:45:17.330Z,6.20
2019-01-25T09:47:47.705Z,7.47
2019-01-25T09:50:18.897Z,7.45
2019-01-25T09:52:52.430Z,5.12
2019-01-25T09:55:24.656Z,5.28
2019-01-25T09:57:57.037Z,5.40
2019-01-25T10:00:30.592Z,7.67
2019-01-25T10:03:00.973Z,8.30
2019-01-25T10:05:31.498Z,6.03
2019-01-25T10:08:01.850Z,7.30
2019-01-25T10:10:32.228Z,8.53
2019-01-25T10:13:03.252Z,6.20
2019-01-25T10:15:33.589Z,7.80
2019-01-25T10:18:03.987Z,8.28
2019-01-25T10:20:34.336Z,7.08
2019-01-25T10:23:05.217Z,7.28
2019-01-25T10:25:35.643Z,8.40
2019-01-25T10:28:06.000Z,6.67
2019-01-25T10:30:37.189Z,11.93
2019-01-25T10:33:08.491Z,6.40
2019-01-25T10:35:38.830Z,8.53
2019-01-25T10:38:09.174Z,7.60
2019-01-25T10:40:39.569Z,7.30
2019-01-25T10:43:09.977Z,7.50
2019-01-25T10:45:41.056Z,8.95
2019-01-25T10:48:12.486Z,13.20
2019-01-25T10:50:42.809Z,8.03
2019-01-25T10:53:13.125Z,7.00
2019-01-25T10:55:43.522Z,8.00
2019-01-25T10:58:13.833Z,7.67
2019-01-25T11:00:44.233Z,5.55
2019-01-25T11:03:14.546Z,6.45
2019-01-25T11:05:44.929Z,8.13
2019-01-25T11:08:15.241Z,6.08
2019-01-25T11:10:45.637Z,7.53
2019-01-25T11:13:15.961Z,7.92
2019-01-25T11:15:46.353Z,6.60
2019-01-25T11:18:16.769Z,10.00
2019-01-25T11:20:48.673Z,6.55
2019-01-25T11:23:19.037Z,21.82
2019-01-25T11:25:51.461Z,10.40
2019-01-25T11:28:22.770Z,6.60
2019-01-25T11:31:19.157Z,12.33
2019-01-25T11:33:49.506Z,8.48
2019-01-25T11:36:20.809Z,8.13
2019-01-25T11:38:51.192Z,9.98
2019-01-25T11:41:22.589Z,10.80
2019-01-25T11:43:53.251Z,6.15
2019-01-25T11:46:24.446Z,12.37
2019-01-25T11:48:55.521Z,10.35
2019-01-25T11:51:25.838Z,12.05
2019-01-25T11:53:56.189Z,7.15
2019-01-25T11:56:26.597Z,8.10
2019-01-25T11:58:56.925Z,9.78
2019-01-25T12:01:27.235Z,7.87
2019-01-25T12:03:57.573Z,10.43
2019-01-25T12:06:27.925Z,9.40
2019-01-25T12:08:58.417Z,9.10
2019-01-25T12:11:30.936Z,13.32
2019-01-25T12:14:01.388Z,5.65
2019-01-25T12:16:31.703Z,16.52
2019-01-25T12:19:02.182Z,7.12
2019-01-25T12:21:40.103Z,7.20
2019-01-25T12:24:10.535Z,7.92
2019-01-25T12:26:40.894Z,11.00
2019-01-25T12:29:11.293Z,9.98
2019-01-25T12:31:41.613Z,9.33
2019-01-25T12:34:12.013Z,7.12
2019-01-25T12:36:42.349Z,13.60
2019-01-25T12:39:13.625Z,7.65
2019-01-25T12:41:43.989Z,19.07
2019-01-25T12:44:14.421Z,9.25
2019-01-25T12:46:44.775Z,5.80
2019-01-25T12:49:15.167Z,9.23
2019-01-25T12:51:55.574Z,12.90
2019-01-25T12:54:25.943Z,18.73
2019-01-25T12:56:56.345Z,11.80
2019-01-25T12:59:26.691Z,13.53
2019-01-25T13:01:57.086Z,7.67
2019-01-25T13:04:27.485Z,15.70
2019-01-25T13:06:57.893Z,9.90
2019-01-25T13:09:28.271Z,12.07
2019-01-25T13:11:58.709Z,9.33
2019-01-25T13:14:29.167Z,9.18
2019-01-25T13:16:59.579Z,11.88
2019-01-25T13:19:30.062Z,9.05
2019-01-25T13:22:00.421Z,11.18
2019-01-25T13:24:30.997Z,11.22
2019-01-25T13:27:01.397Z,11.28
2019-01-25T13:29:31.767Z,9.45
2019-01-25T13:32:02.097Z,11.65
2019-01-25T13:34:32.490Z,9.03
2019-01-25T13:37:02.897Z,8.23
2019-01-25T13:39:33.390Z,8.23
2019-01-25T13:42:03.949Z,7.45
2019-01-25T13:44:34.797Z,8.13
2019-01-25T13:47:05.203Z,13.03
2019-01-25T13:49:35.613Z,12.33
2019-01-25T13:52:05.917Z,13.35
2019-01-25T13:54:36.313Z,8.80
2019-01-25T13:57:06.713Z,14.20
2019-01-25T13:59:37.121Z,11.05
2019-01-25T14:02:07.635Z,10.18
2019-01-25T14:04:38.393Z,11.43
2019-01-25T14:07:08.871Z,25.12
2019-01-25T14:09:39.541Z,14.05
2019-01-25T14:12:10.181Z,18.82
2019-01-25T14:14:41.691Z,10.82
2019-01-25T14:17:12.225Z,10.10
2019-01-25T14:19:42.641Z,12.65
2019-01-25T14:22:13.218Z,9.30
2019-01-25T14:24:43.663Z,12.95
2019-01-25T14:27:14.449Z,10.82
2019-01-25T14:29:45.105Z,15.83
2019-01-25T14:32:15.719Z,9.88
2019-01-25T14:34:46.194Z,12.90
2019-01-25T14:37:16.753Z,10.28
2019-01-25T14:39:47.629Z,9.63
2019-01-25T14:42:22.751Z,11.43
2019-01-25T14:44:59.218Z,8.58
2019-01-25T14:47:29.962Z,10.32
2019-01-25T14:50:09.846Z,9.08
2019-01-25T14:52:41.265Z,11.88
2019-01-25T14:55:11.753Z,13.50
2019-01-25T14:57:42.323Z,12.15
2019-01-25T15:00:12.808Z,19.62
2019-01-25T15:02:43.640Z,11.88
2019-01-25T15:05:20.072Z,10.25
2019-01-25T15:07:52.542Z,12.07
2019-01-25T15:10:25.924Z,29.25
2019-01-25T15:12:59.054Z,20.45
2019-01-25T15:15:29.582Z,9.05
2019-01-25T15:18:00.065Z,15.53
2019-01-25T15:20:30.770Z,12.80
2019-01-25T15:23:13.217Z,16.05
2019-01-25T15:25:46.758Z,11.93
2019-01-25T15:28:19.766Z,11.43
2019-01-25T15:30:55.924Z,12.68
2019-01-25T15:33:26.363Z,20.25
2019-01-25T15:35:56.998Z,22.75
2019-01-25T15:38:27.836Z,15.63
2019-01-25T15:40:58.683Z,19.90
2019-01-25T15:43:29.312Z,15.32
2019-01-25T15:46:00.031Z,12.45
2019-01-25T15:48:30.662Z,13.45
2019-01-25T15:51:01.129Z,17.25
2019-01-25T15:53:31.509Z,12.25
2019-01-25T15:56:01.865Z,12.73
2019-01-25T15:58:32.309Z,11.12
2019-01-25T16:01:02.867Z,14.47
2019-01-25T16:03:33.212Z,17.62
2019-01-25T16:06:03.746Z,16.37
2019-01-25T16:08:35.943Z,15.85
2019-01-25T16:11:06.353Z,15.32
2019-01-25T16:13:36.763Z,13.53
2019-01-25T16:16:07.152Z,17.55
2019-01-25T16:18:37.487Z,14.90
2019-01-25T16:21:07.821Z,22.50
2019-01-25T16:23:38.156Z,19.32
2019-01-25T16:26:08.567Z,16.60
2019-01-25T16:28:38.906Z,22.40
2019-01-25T16:31:09.238Z,14.85
2019-01-25T16:33:39.717Z,16.95
2019-01-25T16:36:10.094Z,18.92
2019-01-25T16:38:40.457Z,21.45
2019-01-25T16:41:10.773Z,16.77
2019-01-25T16:43:41.139Z,18.52
2019-01-25T16:46:12.834Z,17.15
2019-01-25T16:48:43.149Z,27.00
2019-01-25T16:51:13.529Z,25.72
2019-01-25T16:53:43.853Z,17.15
2019-01-25T16:56:14.229Z,14.95
2019-01-25T16:58:44.625Z,28.38
2019-01-25T17:01:14.972Z,22.67
2019-01-25T17:03:45.397Z,24.25
2019-01-25T17:06:15.713Z,20.12
2019-01-25T17:08:46.049Z,21.12
2019-01-25T17:11:16.411Z,18.57
2019-01-25T17:13:46.733Z,17.80
2019-01-25T17:16:17.140Z,19.77
2019-01-25T17:18:47.608Z,17.98
2019-01-25T17:21:18.043Z,20.02
2019-01-25T17:23:48.513Z,23.90
2019-01-25T17:26:19.023Z,21.57
2019-01-25T17:28:49.430Z,22.82
2019-01-25T17:31:19.801Z,33.28
2019-01-25T17:33:50.149Z,19.65
2019-01-25T17:36:20.493Z,29.12
2019-01-25T17:38:50.853Z,19.70
2019-01-25T17:41:21.192Z,18.17
2019-01-25T17:43:51.533Z,19.90
2019-01-25T17:46:23.021Z,23.57
2019-01-25T17:48:53.385Z,28.47
2019-01-25T17:51:23.743Z,20.12
2019-01-25T17:53:54.091Z,26.73
2019-01-25T17:56:24.491Z,23.30
2019-01-25T17:58:54.829Z,32.73
2019-01-25T18:01:25.192Z,21.30
2019-01-25T18:03:55.506Z,34.85
2019-01-25T18:06:25.923Z,30.32
2019-01-25T18:08:57.305Z,29.35
2019-01-25T18:11:27.657Z,23.18
2019-01-25T18:13:57.993Z,20.37
2019-01-25T18:16:28.397Z,20.23
2019-01-25T18:18:58.706Z,32.40
2019-01-25T18:21:29.038Z,23.77
2019-01-25T18:23:59.385Z,26.73
2019-01-25T18:26:29.741Z,22.98
2019-01-25T18:29:09.730Z,20.23
2019-01-25T18:31:40.141Z,31.65
2019-01-25T18:34:10.513Z,22.65
2019-01-25T18:36:41.299Z,30.85
2019-01-25T18:39:12.765Z,34.35
2019-01-25T18:41:43.174Z,40.88
2019-01-25T18:44:13.800Z,31.87
2019-01-25T18:46:44.713Z,37.00
2019-01-25T18:49:15.025Z,24.47
2019-01-25T18:51:45.385Z,17.98
2019-01-25T18:54:15.709Z,20.97
2019-01-25T18:56:48.337Z,45.40
2019-01-25T18:59:18.683Z,21.25
2019-01-25T19:01:49.038Z,24.32
2019-01-25T19:04:19.481Z,20.65
2019-01-25T19:06:50.961Z,33.25
2019-01-25T19:09:21.381Z,39.65
2019-01-25T19:11:52.115Z,32.13
2019-01-25T19:14:22.525Z,26.55
2019-01-25T19:16:53.724Z,29.42
2019-01-25T19:19:24.131Z,26.68
2019-01-25T19:21:57.689Z,34.83
2019-01-25T19:24:28.183Z,36.23
2019-01-25T19:26:58.604Z,44.65
2019-01-25T19:29:28.959Z,26.37
2019-01-25T19:31:59.341Z,26.33
2019-01-25T19:34:29.673Z,20.65
2019-01-25T19:37:00.002Z,35.00
2019-01-25T19:39:31.349Z,56.05
2019-01-25T19:42:01.705Z,21.50
2019-01-25T19:44:32.069Z,23.20
2019-01-25T19:47:03.475Z,24.67
2019-01-25T19:49:33.893Z,32.63
2019-01-25T19:52:04.781Z,30.35
2019-01-25T19:54:35.160Z,32.90
2019-01-25T19:57:05.900Z,33.55
2019-01-25T19:59:36.261Z,32.67
2019-01-25T20:02:06.797Z,27.82
2019-01-25T20:04:37.211Z,35.00
2019-01-25T20:07:07.602Z,29.95
2019-01-25T20:09:38.073Z,35.75
2019-01-25T20:12:08.545Z,37.50
2019-01-25T20:14:39.071Z,21.93
2019-01-25T20:17:10.337Z,34.92
2019-01-25T20:19:41.629Z,33.65
2019-01-25T20:22:12.949Z,31.00
2019-01-25T20:24:43.386Z,29.00
2019-01-25T20:27:13.770Z,29.92
2019-01-25T20:29:44.128Z,31.55
2019-01-25T20:32:14.621Z,51.40
2019-01-25T20:34:45.045Z,32.38
2019-01-25T20:37:15.367Z,34.85
2019-01-25T20:39:45.721Z,31.33
2019-01-25T20:42:16.055Z,29.50
2019-01-25T20:44:46.397Z,27.13
2019-01-25T20:47:16.733Z,30.02
2019-01-25T20:49:47.781Z,28.32
2019-01-25T20:52:18.097Z,20.52
2019-01-25T20:54:48.463Z,33.83
2019-01-25T20:57:18.787Z,35.60
2019-01-25T20:59:49.143Z,28.80
2019-01-25T21:02:19.458Z,29.92
2019-01-25T21:04:49.809Z,23.75
2019-01-25T21:07:20.207Z,27.87
2019-01-25T21:09:50.529Z,38.08
2019-01-25T21:12:20.897Z,42.55
2019-01-25T21:14:51.317Z,23.83
2019-01-25T21:17:21.688Z,26.95
2019-01-25T21:19:52.438Z,49.75
2019-01-25T21:22:22.849Z,28.77
2019-01-25T21:24:53.428Z,28.87
2019-01-25T21:27:23.782Z,22.02
2019-01-25T21:29:54.161Z,20.88
2019-01-25T21:32:24.487Z,27.48
2019-01-25T21:34:55.013Z,31.12
2019-01-25T21:37:25.337Z,28.27
2019-01-25T21:39:56.073Z,26.73
2019-01-25T21:42:28.018Z,33.25
2019-01-25T21:44:58.397Z,60.95
2019-01-25T21:47:28.759Z,26.48
2019-01-25T21:50:00.353Z,25.35
2019-01-25T21:52:30.709Z,20.75
2019-01-25T21:55:01.067Z,34.90
2019-01-25T21:57:31.405Z,32.23
2019-01-25T22:00:01.769Z,30.77
2019-01-25T22:02:32.141Z,39.75
2019-01-25T22:05:02.491Z,45.10
2019-01-25T22:07:32.891Z,30.40
2019-01-25T22:10:03.220Z,21.68
2019-01-25T22:12:33.597Z,45.17
2019-01-25T22:15:04.030Z,27.58
2019-01-25T22:17:34.413Z,47.95
2019-01-25T22:20:06.955Z,43.02
2019-01-25T22:22:37.368Z,36.93
2019-01-25T22:25:08.297Z,29.85
2019-01-25T22:27:38.608Z,33.67
2019-01-25T22:30:11.907Z,20.85
2019-01-25T22:32:42.562Z,27.50
2019-01-25T22:35:12.932Z,24.47
2019-01-25T22:37:43.365Z,27.50
2019-01-25T22:40:19.344Z,23.65
2019-01-25T22:42:49.678Z,25.55
2019-01-25T22:45:21.739Z,27.25
2019-01-25T22:47:52.065Z,28.23
2019-01-25T22:50:24.931Z,37.17
2019-01-25T22:52:55.289Z,29.23
2019-01-25T22:55:26.306Z,29.95
2019-01-25T22:57:56.649Z,42.15
2019-01-25T23:01:19.838Z,40.03
2019-01-25T23:04:46.500Z,28.27
2019-01-25T23:07:25.977Z,37.95
2019-01-25T23:09:58.572Z,31.15
2019-01-25T23:12:28.904Z,31.82
2019-01-25T23:14:59.242Z,53.52
2019-01-25T23:17:29.556Z,35.73
2019-01-25T23:20:01.010Z,36.93
2019-01-25T23:22:32.808Z,37.98
2019-01-25T23:25:03.156Z,35.30
2019-01-25T23:27:33.488Z,32.42
2019-01-25T23:30:03.816Z,38.75
2019-01-25T23:32:34.250Z,31.80
2019-01-25T23:35:05.301Z,33.95
2019-01-25T23:37:35.983Z,40.73
2019-01-25T23:40:09.106Z,45.10
2019-01-25T23:42:40.439Z,45.52
2019-01-25T23:45:12.107Z,35.08
2019-01-25T23:47:43.451Z,29.87
2019-01-25T23:50:13.777Z,35.65
2019-01-25T23:52:44.579Z,31.68
2019-01-25T23:55:15.022Z,43.98
2019-01-25T23:57:45.425Z,35.00
